Time;durP1;ratioP1;P1;durP2;ratioP2;P2;SDS_P1;SDS_P2;PMS_P1;PMS_P2;Temp;Humidity;BMP_temperature;BMP_pressure;BME280_temperature;BME280_humidity;BME280_pressure;Samples;Min_cycle;Max_cycle;Signal;HPM_P1;HPM_P2
2023/07/08 00:00:26;;;;;;;6.85;4.45;;;18.80;99.90;;;;;;5038786;28;20465;-66
2023/07/08 00:02:52;;;;;;;8.18;4.97;;;18.80;99.90;;;;;;5023726;28;20117;-66
2023/07/08 00:05:20;;;;;;;5.97;4.47;;;18.70;99.90;;;;;;5030499;28;20092;-66
2023/07/08 00:07:47;;;;;;;7.25;4.85;;;18.70;99.90;;;;;;5039910;28;20029;-66
2023/07/08 00:10:24;;;;;;;9.98;5.00;;;18.70;99.90;;;;;;5038678;28;20454;-66
2023/07/08 00:12:58;;;;;;;6.45;4.45;;;18.60;99.90;;;;;;5048167;28;20041;-66
2023/07/08 00:15:30;;;;;;;7.38;4.97;;;18.60;99.90;;;;;;5047900;28;20045;-66
2023/07/08 00:17:55;;;;;;;8.82;4.75;;;18.60;99.90;;;;;;5028496;28;20055;-66
2023/07/08 00:20:35;;;;;;;9.32;4.70;;;18.50;99.90;;;;;;5030727;28;20034;-66
2023/07/08 00:23:01;;;;;;;8.20;4.32;;;18.60;99.90;;;;;;5031362;28;20080;-66
2023/07/08 00:25:27;;;;;;;9.90;4.80;;;18.60;99.90;;;;;;5036546;28;20037;-66
2023/07/08 00:27:53;;;;;;;9.40;4.70;;;18.60;99.90;;;;;;5038558;28;20099;-66
2023/07/08 00:30:30;;;;;;;9.25;4.82;;;18.60;99.90;;;;;;5043355;28;20486;-66
2023/07/08 00:32:57;;;;;;;7.97;5.22;;;18.50;99.90;;;;;;5032490;28;20030;-66
2023/07/08 00:35:29;;;;;;;9.68;4.85;;;18.50;99.90;;;;;;5029376;28;20083;-66
2023/07/08 00:38:01;;;;;;;8.98;4.57;;;18.40;99.90;;;;;;5031077;28;20041;-66
2023/07/08 00:40:32;;;;;;;8.65;5.30;;;18.40;99.90;;;;;;5042003;28;20057;-66
2023/07/08 00:43:05;;;;;;;7.97;5.22;;;18.40;99.90;;;;;;5034848;28;20029;-66
2023/07/08 00:45:41;;;;;;;10.45;5.03;;;18.40;99.90;;;;;;5036886;28;20045;-66
2023/07/08 00:48:21;;;;;;;10.02;5.03;;;18.30;99.90;;;;;;5030318;28;20111;-66
2023/07/08 00:50:48;;;;;;;8.35;5.25;;;18.30;99.90;;;;;;5030990;28;20038;-65
2023/07/08 00:53:27;;;;;;;6.35;4.57;;;18.20;99.90;;;;;;5025361;28;20517;-65
2023/07/08 00:56:15;;;;;;;6.40;4.63;;;18.20;99.90;;;;;;5031250;28;20044;-66
2023/07/08 00:58:51;;;;;;;6.80;4.65;;;18.10;99.90;;;;;;5029496;28;20550;-66
2023/07/08 01:01:17;;;;;;;8.02;5.40;;;18.10;99.90;;;;;;5031418;28;20617;-66
2023/07/08 01:03:50;;;;;;;7.60;4.90;;;18.10;99.90;;;;;;5021767;28;20046;-66
2023/07/08 01:06:20;;;;;;;8.30;5.78;;;18.00;99.90;;;;;;5023655;28;20045;-66
2023/07/08 01:08:50;;;;;;;13.32;5.57;;;18.00;99.90;;;;;;5036610;28;20045;-66
2023/07/08 01:11:15;;;;;;;8.98;5.28;;;18.00;99.90;;;;;;5025348;28;20108;-66
2023/07/08 01:13:43;;;;;;;10.65;5.15;;;17.90;99.90;;;;;;5034343;28;20550;-66
2023/07/08 01:16:09;;;;;;;6.50;4.70;;;17.90;99.90;;;;;;5035153;28;20040;-66
2023/07/08 01:18:36;;;;;;;6.95;4.90;;;17.80;99.90;;;;;;5040740;28;20499;-66
2023/07/08 01:21:27;;;;;;;8.80;5.40;;;17.90;99.90;;;;;;5034380;28;20098;-66
2023/07/08 01:23:52;;;;;;;7.47;4.97;;;17.80;99.90;;;;;;5034036;28;20075;-66
2023/07/08 01:26:19;;;;;;;8.02;5.05;;;17.80;99.90;;;;;;5031420;28;20128;-66
2023/07/08 01:28:45;;;;;;;9.05;5.30;;;17.80;99.90;;;;;;5022372;28;20038;-66
2023/07/08 01:31:11;;;;;;;8.75;5.55;;;17.70;99.90;;;;;;5038231;28;20167;-66
2023/07/08 01:33:37;;;;;;;7.18;5.20;;;17.70;99.90;;;;;;5032825;28;20037;-66
2023/07/08 01:36:02;;;;;;;9.40;5.30;;;17.70;99.90;;;;;;5032829;28;20033;-66
2023/07/08 01:38:28;;;;;;;8.40;5.40;;;17.70;99.90;;;;;;5042248;28;20117;-66
2023/07/08 01:40:57;;;;;;;9.35;5.65;;;17.60;99.90;;;;;;5043199;28;20189;-66
2023/07/08 01:43:22;;;;;;;9.63;5.53;;;17.60;99.90;;;;;;5030733;28;20037;-66
2023/07/08 01:45:50;;;;;;;8.20;5.40;;;17.60;99.90;;;;;;5032865;28;20392;-66
2023/07/08 01:48:22;;;;;;;7.68;5.50;;;17.60;99.90;;;;;;5041237;28;20090;-66
2023/07/08 01:50:57;;;;;;;8.45;5.43;;;17.50;99.90;;;;;;5041525;28;20064;-65
2023/07/08 01:53:32;;;;;;;9.63;5.60;;;17.50;99.90;;;;;;5026711;28;20056;-65
2023/07/08 01:55:58;;;;;;;9.18;5.22;;;17.60;99.90;;;;;;5032524;28;20047;-66
2023/07/08 01:58:24;;;;;;;10.90;5.72;;;17.50;99.90;;;;;;5041748;28;20033;-65
2023/07/08 02:00:50;;;;;;;8.05;5.30;;;17.50;99.90;;;;;;5029615;28;20033;-65
2023/07/08 02:03:16;;;;;;;8.65;5.47;;;17.50;99.90;;;;;;5035113;28;20044;-65
2023/07/08 02:05:42;;;;;;;9.30;5.63;;;17.50;99.90;;;;;;5031302;28;20072;-66
2023/07/08 02:08:08;;;;;;;11.43;6.07;;;17.50;99.90;;;;;;5040783;28;20075;-66
2023/07/08 02:10:33;;;;;;;9.68;6.80;;;17.40;99.90;;;;;;5032043;28;20025;-66
2023/07/08 02:12:59;;;;;;;10.48;7.57;;;17.40;99.90;;;;;;5033444;28;20083;-66
2023/07/08 02:15:26;;;;;;;11.10;7.68;;;17.40;99.90;;;;;;5037288;28;20037;-65
2023/07/08 02:17:51;;;;;;;11.02;8.18;;;17.30;99.90;;;;;;5046515;28;20045;-65
2023/07/08 02:20:17;;;;;;;8.93;7.85;;;17.20;99.90;;;;;;5041387;28;20034;-66
2023/07/08 02:22:42;;;;;;;10.35;8.57;;;17.20;99.90;;;;;;5048276;28;20041;-66
2023/07/08 02:25:11;;;;;;;10.50;8.35;;;17.10;99.90;;;;;;5048867;28;20140;-66
2023/07/08 02:27:38;;;;;;;10.05;8.25;;;17.10;99.90;;;;;;5032248;28;20034;-66
2023/07/08 02:30:04;;;;;;;10.60;8.82;;;17.10;99.90;;;;;;5033425;28;20029;-66
2023/07/08 02:32:30;;;;;;;10.75;9.20;;;17.10;99.90;;;;;;5039896;28;20658;-66
2023/07/08 02:34:55;;;;;;;9.93;8.43;;;17.10;99.90;;;;;;5032779;28;20144;-66
2023/07/08 02:37:21;;;;;;;10.95;8.85;;;17.10;99.90;;;;;;5034123;28;20380;-66
2023/07/08 02:39:47;;;;;;;11.32;8.60;;;17.10;99.90;;;;;;5041128;28;20069;-66
2023/07/08 02:42:12;;;;;;;12.95;9.07;;;17.10;99.90;;;;;;5044468;28;20041;-66
2023/07/08 02:44:38;;;;;;;11.93;9.27;;;17.00;99.90;;;;;;5042736;28;20414;-66
2023/07/08 02:47:04;;;;;;;11.90;9.25;;;17.00;99.90;;;;;;5034129;28;20050;-66
2023/07/08 02:49:30;;;;;;;14.55;10.15;;;17.00;99.90;;;;;;5046709;28;20052;-65
2023/07/08 02:51:55;;;;;;;12.20;8.88;;;17.00;99.90;;;;;;5029332;28;20479;-65
2023/07/08 02:54:21;;;;;;;14.30;9.27;;;17.00;99.90;;;;;;5045158;28;20037;-66
2023/07/08 02:56:47;;;;;;;11.70;8.85;;;17.00;99.90;;;;;;5043304;28;20431;-66
2023/07/08 02:59:12;;;;;;;10.45;8.63;;;17.00;99.90;;;;;;5040409;28;20037;-66
2023/07/08 03:01:41;;;;;;;11.82;8.95;;;17.00;99.90;;;;;;5035477;28;20549;-66
2023/07/08 03:04:13;;;;;;;10.75;8.30;;;16.90;99.90;;;;;;5031482;28;20507;-66
2023/07/08 03:06:43;;;;;;;12.38;9.00;;;16.90;99.90;;;;;;5039064;28;20649;-66
2023/07/08 03:09:11;;;;;;;13.40;9.18;;;16.90;99.90;;;;;;5044097;28;20059;-66
2023/07/08 03:11:38;;;;;;;10.45;8.75;;;16.90;99.90;;;;;;5043687;28;20033;-66
2023/07/08 03:14:04;;;;;;;13.60;8.90;;;16.90;99.90;;;;;;5038746;28;20050;-66
2023/07/08 03:16:29;;;;;;;12.70;8.90;;;16.70;99.90;;;;;;5030342;28;20457;-66
2023/07/08 03:18:55;;;;;;;12.00;9.05;;;16.80;99.90;;;;;;5030607;28;20461;-66
2023/07/08 03:21:21;;;;;;;11.73;8.27;;;16.80;99.90;;;;;;5028070;28;20029;-66
2023/07/08 03:23:48;;;;;;;10.85;8.15;;;16.80;99.90;;;;;;5030559;28;20088;-66
2023/07/08 03:26:23;;;;;;;12.27;7.85;;;16.70;99.90;;;;;;5035331;28;20395;-65
2023/07/08 03:28:49;;;;;;;9.50;8.07;;;16.80;99.90;;;;;;5035333;28;20436;-66
2023/07/08 03:31:15;;;;;;;10.30;8.43;;;16.80;99.90;;;;;;5031974;28;20092;-66
2023/07/08 03:33:41;;;;;;;11.70;8.27;;;16.70;99.90;;;;;;5022573;28;20051;-66
2023/07/08 03:36:13;;;;;;;9.43;8.27;;;16.70;99.90;;;;;;5030778;28;20388;-66
2023/07/08 03:38:39;;;;;;;9.70;7.95;;;16.70;99.90;;;;;;5027585;28;20403;-66
2023/07/08 03:41:05;;;;;;;11.00;8.23;;;16.70;99.90;;;;;;5039442;28;20037;-66
2023/07/08 03:43:30;;;;;;;10.55;8.57;;;16.70;99.90;;;;;;5045520;28;20106;-66
2023/07/08 03:45:56;;;;;;;9.95;7.80;;;16.70;99.90;;;;;;5045202;28;20433;-63
2023/07/08 03:48:22;;;;;;;12.82;8.38;;;16.70;99.90;;;;;;5025902;28;20080;-63
2023/07/08 03:50:47;;;;;;;12.23;7.85;;;16.70;99.90;;;;;;5028596;28;20065;-63
2023/07/08 03:53:13;;;;;;;10.82;7.80;;;16.70;99.90;;;;;;5029392;28;20037;-63
2023/07/08 03:55:39;;;;;;;10.40;7.05;;;16.70;99.90;;;;;;5030245;28;20033;-63
2023/07/08 03:58:04;;;;;;;12.10;7.30;;;16.70;99.90;;;;;;5042015;28;20040;-63
2023/07/08 04:00:30;;;;;;;10.00;7.00;;;16.70;99.90;;;;;;5041597;28;20084;-63
2023/07/08 04:02:56;;;;;;;9.70;7.25;;;16.70;99.90;;;;;;5029031;28;20045;-63
2023/07/08 04:05:23;;;;;;;10.23;7.30;;;16.70;99.90;;;;;;5028515;28;20368;-63
2023/07/08 04:07:49;;;;;;;12.30;6.97;;;16.70;99.90;;;;;;5029525;28;20368;-63
2023/07/08 04:10:16;;;;;;;9.13;6.60;;;16.80;99.90;;;;;;5031751;28;20052;-63
2023/07/08 04:12:42;;;;;;;9.05;7.22;;;16.70;99.90;;;;;;5037956;28;20398;-63
2023/07/08 04:15:09;;;;;;;9.90;7.05;;;16.70;99.90;;;;;;5043295;28;20045;-63
2023/07/08 04:17:45;;;;;;;10.30;6.30;;;16.70;99.90;;;;;;5039180;28;20038;-63
2023/07/08 04:20:14;;;;;;;11.57;6.88;;;16.70;99.90;;;;;;5030659;28;20120;-63
2023/07/08 04:22:40;;;;;;;9.63;6.15;;;16.70;99.90;;;;;;5031048;28;20045;-63
2023/07/08 04:25:06;;;;;;;10.00;7.30;;;16.80;99.90;;;;;;5038224;28;20037;-63
2023/07/08 04:27:32;;;;;;;8.38;6.60;;;16.70;99.90;;;;;;5042900;28;20095;-63
2023/07/08 04:29:58;;;;;;;10.43;6.63;;;16.80;99.90;;;;;;5045826;28;20030;-63
2023/07/08 04:32:24;;;;;;;12.05;6.97;;;16.80;99.90;;;;;;5037939;28;20491;-62
2023/07/08 04:34:51;;;;;;;12.43;7.25;;;16.80;99.90;;;;;;5030443;28;20037;-62
2023/07/08 04:37:17;;;;;;;9.80;6.75;;;16.90;99.90;;;;;;5029351;28;20615;-63
2023/07/08 04:39:42;;;;;;;8.95;7.15;;;16.90;99.90;;;;;;5030723;28;20044;-62
2023/07/08 04:42:08;;;;;;;9.60;6.72;;;16.90;99.90;;;;;;5039169;28;20396;-63
2023/07/08 04:44:34;;;;;;;8.98;6.85;;;16.90;99.90;;;;;;5037516;28;20033;-63
2023/07/08 04:47:00;;;;;;;10.32;7.07;;;16.90;99.90;;;;;;5042980;28;20038;-63
2023/07/08 04:49:33;;;;;;;11.27;7.13;;;17.00;99.90;;;;;;5034946;28;20530;-63
2023/07/08 04:52:01;;;;;;;9.82;6.97;;;17.00;99.90;;;;;;5041132;22;20128;-67
2023/07/08 04:54:30;;;;;;;8.80;7.22;;;17.00;99.90;;;;;;5024009;28;20033;-67
2023/07/08 04:56:55;;;;;;;13.93;6.82;;;17.00;99.90;;;;;;5013885;28;20037;-67
2023/07/08 04:59:23;;;;;;;8.75;6.55;;;17.10;99.90;;;;;;5015207;28;20103;-66
2023/07/08 05:01:49;;;;;;;9.82;6.95;;;17.10;99.90;;;;;;5021209;28;20038;-67
2023/07/08 05:04:18;;;;;;;11.50;7.53;;;17.20;99.90;;;;;;5016490;28;20041;-67
2023/07/08 05:06:43;;;;;;;15.50;7.63;;;17.30;99.90;;;;;;5019294;28;20040;-67
2023/07/08 05:09:10;;;;;;;12.23;7.82;;;17.40;99.90;;;;;;5014493;28;20041;-67
2023/07/08 05:11:36;;;;;;;9.40;7.32;;;17.50;99.90;;;;;;5014622;28;20041;-67
2023/07/08 05:14:03;;;;;;;10.02;7.65;;;17.60;99.90;;;;;;5008183;28;20084;-67
2023/07/08 05:16:29;;;;;;;8.90;7.00;;;17.70;99.90;;;;;;5019604;28;20038;-67
2023/07/08 05:18:55;;;;;;;16.35;7.95;;;17.90;99.90;;;;;;5013392;28;20481;-67
2023/07/08 05:21:21;;;;;;;7.25;5.63;;;18.00;99.90;;;;;;5020599;28;20030;-67
2023/07/08 05:23:49;;;;;;;9.93;7.03;;;18.00;99.90;;;;;;5017668;28;20042;-67
2023/07/08 05:26:15;;;;;;;12.52;7.70;;;18.20;99.90;;;;;;5012563;28;20041;-67
2023/07/08 05:28:41;;;;;;;11.25;6.88;;;18.30;99.90;;;;;;5010658;28;20122;-67
2023/07/08 05:31:07;;;;;;;10.82;7.40;;;18.40;99.90;;;;;;5005350;28;20081;-67
2023/07/08 05:33:33;;;;;;;10.60;7.10;;;18.40;99.90;;;;;;5009919;28;20450;-67
2023/07/08 05:35:59;;;;;;;9.70;6.82;;;18.50;99.90;;;;;;5009900;28;20116;-67
2023/07/08 05:38:26;;;;;;;11.38;6.95;;;18.60;99.90;;;;;;5013918;28;20046;-67
2023/07/08 05:40:54;;;;;;;10.15;6.40;;;18.70;99.90;;;;;;5011687;28;20038;-68
2023/07/08 05:43:20;;;;;;;8.32;6.25;;;19.00;99.90;;;;;;5012781;28;20125;-67
2023/07/08 05:45:46;;;;;;;10.13;6.30;;;19.10;99.90;;;;;;5017117;28;20475;-67
2023/07/08 05:48:12;;;;;;;8.85;6.47;;;19.30;99.90;;;;;;5014446;28;20425;-67
2023/07/08 05:50:39;;;;;;;9.98;6.57;;;19.40;99.90;;;;;;5014056;28;20049;-67
2023/07/08 05:53:05;;;;;;;9.95;6.60;;;19.50;99.90;;;;;;5014092;28;20229;-67
2023/07/08 05:55:32;;;;;;;11.82;6.82;;;19.50;99.90;;;;;;5013537;28;20499;-68
2023/07/08 05:57:58;;;;;;;10.05;6.25;;;19.50;99.90;;;;;;5012239;28;20096;-67
2023/07/08 06:00:23;;;;;;;10.57;6.35;;;19.50;99.90;;;;;;5013555;28;20041;-67
2023/07/08 06:02:49;;;;;;;6.15;5.32;;;19.50;99.90;;;;;;5013791;28;20056;-68
2023/07/08 06:05:14;;;;;;;8.10;5.43;;;19.60;99.90;;;;;;5013695;28;20061;-68
2023/07/08 06:07:40;;;;;;;9.02;5.22;;;19.60;99.90;;;;;;5004643;28;20118;-67
2023/07/08 06:10:06;;;;;;;9.85;6.40;;;19.70;99.90;;;;;;5008252;28;20052;-68
2023/07/08 06:12:32;;;;;;;10.90;5.30;;;19.80;99.90;;;;;;5013605;28;20044;-67
2023/07/08 06:14:58;;;;;;;9.80;5.40;;;19.80;99.90;;;;;;5011884;28;20053;-68
2023/07/08 06:17:23;;;;;;;8.35;5.68;;;19.90;99.90;;;;;;5013628;28;20034;-68
2023/07/08 06:19:49;;;;;;;10.70;5.60;;;20.00;99.90;;;;;;5010221;28;20415;-68
2023/07/08 06:22:14;;;;;;;7.25;5.47;;;20.10;99.90;;;;;;5012164;28;20071;-68
2023/07/08 06:24:40;;;;;;;6.97;5.38;;;20.20;99.90;;;;;;5013165;28;20049;-68
2023/07/08 06:27:06;;;;;;;7.50;4.90;;;20.30;99.90;;;;;;5013515;28;20045;-68
2023/07/08 06:29:34;;;;;;;9.38;5.28;;;20.40;99.90;;;;;;5011519;28;20109;-69
2023/07/08 06:32:00;;;;;;;7.68;5.10;;;20.50;99.90;;;;;;5013021;28;20033;-68
2023/07/08 06:34:26;;;;;;;7.15;4.90;;;20.60;99.90;;;;;;5010692;28;20041;-68
2023/07/08 06:36:51;;;;;;;7.40;4.85;;;20.70;99.90;;;;;;5008966;28;20034;-68
2023/07/08 06:39:17;;;;;;;7.00;4.90;;;20.70;99.90;;;;;;5015566;28;20029;-68
2023/07/08 06:41:44;;;;;;;7.57;5.07;;;20.80;99.90;;;;;;5013116;28;20033;-68
2023/07/08 06:44:10;;;;;;;5.53;4.68;;;21.00;99.90;;;;;;5011552;28;20046;-68
2023/07/08 06:46:35;;;;;;;9.73;4.80;;;21.10;99.90;;;;;;5012986;28;20412;-68
2023/07/08 06:49:01;;;;;;;7.65;4.97;;;21.20;99.90;;;;;;5011853;28;20034;-68
2023/07/08 06:51:27;;;;;;;7.47;5.03;;;21.30;99.90;;;;;;5027143;28;20052;-69
2023/07/08 06:53:52;;;;;;;6.97;4.78;;;21.50;99.90;;;;;;5015326;28;20081;-69
2023/07/08 06:56:18;;;;;;;9.25;5.00;;;21.60;99.90;;;;;;5013022;28;20046;-68
2023/07/08 06:58:44;;;;;;;8.18;4.70;;;21.70;99.90;;;;;;5013139;28;20484;-68
2023/07/08 07:01:09;;;;;;;9.63;4.60;;;21.90;99.90;;;;;;5007208;28;20443;-69
2023/07/08 07:03:35;;;;;;;6.45;4.95;;;22.00;99.90;;;;;;5017618;28;20398;-69
2023/07/08 07:06:00;;;;;;;5.70;4.10;;;22.10;99.90;;;;;;5015354;28;20091;-69
2023/07/08 07:08:26;;;;;;;6.55;4.32;;;22.20;99.90;;;;;;5015372;28;20445;-68
2023/07/08 07:10:52;;;;;;;6.70;4.18;;;22.30;99.90;;;;;;5018661;28;20036;-68
2023/07/08 07:13:17;;;;;;;4.97;3.90;;;22.40;99.90;;;;;;5012685;28;20025;-68
2023/07/08 07:15:43;;;;;;;7.85;4.55;;;22.50;99.90;;;;;;5017473;28;20432;-68
2023/07/08 07:18:08;;;;;;;7.15;4.10;;;22.60;99.90;;;;;;5016474;28;20046;-68
2023/07/08 07:20:37;;;;;;;6.28;4.10;;;22.80;99.90;;;;;;5008082;28;20411;-68
2023/07/08 07:23:03;;;;;;;6.80;3.83;;;22.90;99.90;;;;;;5009758;28;20574;-68
2023/07/08 07:25:28;;;;;;;5.10;3.42;;;23.00;99.90;;;;;;5010750;28;20038;-68
2023/07/08 07:27:54;;;;;;;6.35;3.90;;;23.10;99.90;;;;;;5018977;28;20412;-68
2023/07/08 07:30:20;;;;;;;5.82;3.85;;;23.20;99.90;;;;;;5010930;28;20038;-68
2023/07/08 07:32:45;;;;;;;4.63;3.42;;;23.30;99.90;;;;;;5010845;28;20510;-68
2023/07/08 07:35:14;;;;;;;7.82;3.67;;;23.30;99.90;;;;;;5010064;28;20040;-68
2023/07/08 07:37:41;;;;;;;8.15;3.67;;;23.50;99.90;;;;;;5010719;28;20084;-68
2023/07/08 07:40:12;;;;;;;6.28;4.20;;;23.60;99.90;;;;;;5009972;28;20044;-68
2023/07/08 07:42:42;;;;;;;8.98;3.78;;;23.70;99.90;;;;;;5010910;28;20045;-69
2023/07/08 07:45:09;;;;;;;4.13;3.47;;;23.80;99.90;;;;;;5010807;28;20110;-69
2023/07/08 07:47:35;;;;;;;4.60;3.47;;;23.90;99.90;;;;;;5011077;28;20439;-68
2023/07/08 07:50:01;;;;;;;5.18;3.85;;;24.00;99.90;;;;;;5006113;28;20045;-68
2023/07/08 07:52:27;;;;;;;7.30;3.83;;;24.10;99.90;;;;;;5013508;28;20045;-68
2023/07/08 07:54:54;;;;;;;7.90;3.80;;;24.20;99.20;;;;;;5007391;28;20029;-68
2023/07/08 07:57:20;;;;;;;3.95;3.50;;;24.40;99.10;;;;;;5008065;28;20159;-68
2023/07/08 07:59:46;;;;;;;5.78;3.53;;;24.40;98.30;;;;;;5010101;28;20037;-68
2023/07/08 08:02:12;;;;;;;5.78;3.38;;;24.60;97.80;;;;;;5009467;28;20065;-68
2023/07/08 08:04:37;;;;;;;5.30;3.70;;;24.70;97.80;;;;;;5015362;28;20041;-68
2023/07/08 08:07:03;;;;;;;9.65;3.80;;;24.80;97.30;;;;;;5009286;28;20120;-68
2023/07/08 08:09:29;;;;;;;5.00;3.40;;;24.90;96.40;;;;;;5016255;28;20034;-69
2023/07/08 08:11:55;;;;;;;4.20;3.28;;;25.00;96.10;;;;;;5016101;28;20088;-69
2023/07/08 08:14:21;;;;;;;5.30;3.58;;;25.10;96.00;;;;;;5010636;28;20117;-68
2023/07/08 08:16:47;;;;;;;6.18;3.53;;;25.10;95.40;;;;;;5016322;28;20116;-68
2023/07/08 08:19:13;;;;;;;4.72;3.08;;;25.30;95.20;;;;;;5010285;28;20080;-68
2023/07/08 08:21:39;;;;;;;5.57;4.05;;;25.40;94.60;;;;;;5016590;28;20126;-68
2023/07/08 08:24:04;;;;;;;6.07;3.72;;;25.60;95.10;;;;;;5017428;28;20084;-68
2023/07/08 08:26:30;;;;;;;4.93;3.35;;;25.60;94.50;;;;;;5011950;28;20037;-68
2023/07/08 08:28:56;;;;;;;5.57;3.30;;;25.70;93.80;;;;;;5018485;28;20029;-68
2023/07/08 08:31:22;;;;;;;3.65;3.28;;;25.90;93.70;;;;;;5014530;28;20081;-69
2023/07/08 08:33:47;;;;;;;4.68;4.03;;;25.90;93.10;;;;;;5016195;28;20488;-68
2023/07/08 08:36:13;;;;;;;7.10;4.05;;;25.90;92.30;;;;;;5010616;28;20042;-68
2023/07/08 08:38:38;;;;;;;4.85;3.90;;;25.90;92.20;;;;;;5003274;28;20629;-69
2023/07/08 08:41:13;;;;;;;5.45;3.50;;;25.80;92.20;;;;;;5016923;28;20081;-70
2023/07/08 08:43:41;;;;;;;5.40;3.80;;;25.80;92.80;;;;;;5015998;28;20514;-70
2023/07/08 08:46:29;;;;;;;7.72;3.90;;;25.90;92.90;;;;;;5014826;28;20050;-69
2023/07/08 08:49:13;;;;;;;5.28;3.40;;;26.10;92.30;;;;;;5013675;28;20054;-68
2023/07/08 08:51:39;;;;;;;5.35;3.67;;;26.30;92.30;;;;;;5010573;28;20492;-68
2023/07/08 08:54:07;;;;;;;6.32;3.80;;;26.50;91.70;;;;;;5011455;28;20133;-68
2023/07/08 08:57:25;;;;;;;5.38;3.20;;;26.60;91.60;;;;;;5015508;28;20048;-68
2023/07/08 08:59:55;;;;;;;4.28;3.63;;;26.80;91.70;;;;;;4970370;28;20050;-68
2023/07/08 09:02:51;;;;;;;5.70;3.67;;;26.90;88.30;;;;;;5011586;28;20061;-68
2023/07/08 09:05:17;;;;;;;4.32;3.67;;;26.90;87.20;;;;;;5009809;28;20042;-69
2023/07/08 09:08:19;;;;;;;4.25;3.60;;;27.00;87.30;;;;;;5018131;28;20091;-68
2023/07/08 09:10:45;;;;;;;5.85;3.70;;;27.10;87.20;;;;;;5014210;28;20148;-68
2023/07/08 09:13:23;;;;;;;5.80;3.50;;;27.20;87.00;;;;;;5014509;28;20484;-68
2023/07/08 09:16:01;;;;;;;6.32;4.40;;;27.30;86.10;;;;;;5013848;28;20038;-68
2023/07/08 09:18:35;;;;;;;7.95;4.25;;;27.40;85.30;;;;;;5011420;28;20057;-69
2023/07/08 09:21:13;;;;;;;5.65;3.63;;;27.50;86.00;;;;;;5015198;28;20042;-68
2023/07/08 09:23:42;;;;;;;5.85;3.83;;;27.60;85.10;;;;;;5020553;28;20499;-68
2023/07/08 09:26:18;;;;;;;4.70;3.30;;;27.60;83.30;;;;;;5012692;28;20041;-69
2023/07/08 09:28:45;;;;;;;5.93;3.38;;;27.70;83.70;;;;;;5011050;28;20053;-69
2023/07/08 09:31:25;;;;;;;6.80;3.50;;;27.80;85.10;;;;;;5021362;28;20483;-68
2023/07/08 09:34:13;;;;;;;5.50;3.88;;;28.00;85.30;;;;;;5011796;28;20472;-68
2023/07/08 09:36:41;;;;;;;7.65;4.05;;;28.10;86.50;;;;;;5010798;28;20062;-68
2023/07/08 09:39:14;;;;;;;4.22;3.50;;;28.20;84.20;;;;;;5013372;28;20081;-68
2023/07/08 09:41:41;;;;;;;4.53;3.45;;;28.20;82.80;;;;;;5018751;28;20033;-68
2023/07/08 09:44:33;;;;;;;5.82;3.70;;;28.30;81.60;;;;;;5013906;28;20038;-68
2023/07/08 09:46:59;;;;;;;7.20;4.05;;;28.30;81.70;;;;;;5005592;28;20100;-68
2023/07/08 09:49:32;;;;;;;4.20;3.60;;;28.40;81.60;;;;;;5012922;28;20041;-69
2023/07/08 09:51:59;;;;;;;7.25;3.70;;;28.50;80.50;;;;;;5003705;28;20519;-68
2023/07/08 09:54:25;;;;;;;5.20;3.42;;;28.60;80.80;;;;;;5020956;28;20040;-68
2023/07/08 09:57:02;;;;;;;5.18;3.55;;;28.70;80.30;;;;;;5010974;28;20041;-68
2023/07/08 09:59:37;;;;;;;7.57;3.63;;;28.80;80.10;;;;;;5011734;28;20053;-68
2023/07/08 10:02:38;;;;;;;4.25;3.40;;;28.90;78.60;;;;;;5013026;28;20033;-69
2023/07/08 10:05:23;;;;;;;5.18;3.30;;;29.00;79.70;;;;;;5004695;28;20073;-68
2023/07/08 10:07:54;;;;;;;5.20;3.25;;;29.00;80.10;;;;;;5008331;28;20048;-68
2023/07/08 10:10:31;;;;;;;4.85;3.42;;;29.00;77.10;;;;;;5006694;28;20447;-68
2023/07/08 10:13:04;;;;;;;5.68;3.70;;;29.10;76.20;;;;;;5012362;28;20038;-68
2023/07/08 10:15:39;;;;;;;5.85;3.78;;;29.30;78.50;;;;;;5005573;28;20034;-69
2023/07/08 10:18:07;;;;;;;6.20;3.70;;;29.40;79.10;;;;;;5019760;28;20042;-69
2023/07/08 10:20:46;;;;;;;12.35;4.00;;;29.50;78.40;;;;;;5013653;28;20492;-68
2023/07/08 10:23:34;;;;;;;6.38;3.80;;;29.50;76.60;;;;;;5011089;28;20500;-68
2023/07/08 10:26:18;;;;;;;4.57;3.53;;;29.60;76.60;;;;;;5014315;28;20510;-69
2023/07/08 10:29:07;;;;;;;5.53;3.60;;;29.60;76.70;;;;;;5014689;28;20454;-68
2023/07/08 10:32:16;;;;;;;4.55;3.72;;;29.70;76.80;;;;;;5005802;28;20038;-68
2023/07/08 10:35:21;;;;;;;5.18;3.50;;;29.70;73.40;;;;;;5000285;28;20077;-68
2023/07/08 10:38:06;;;;;;;5.03;3.30;;;29.80;74.70;;;;;;4991483;28;20415;-68
2023/07/08 10:40:43;;;;;;;6.85;3.92;;;29.90;73.30;;;;;;5010023;28;20708;-68
2023/07/08 10:43:42;;;;;;;5.93;3.80;;;30.00;71.40;;;;;;5011656;28;20081;-68
2023/07/08 10:46:11;;;;;;;7.20;4.10;;;30.00;68.50;;;;;;5013189;28;20046;-68
2023/07/08 10:48:48;;;;;;;4.53;3.58;;;30.10;68.70;;;;;;5009832;28;20038;-68
2023/07/08 10:51:53;;;;;;;4.93;3.70;;;30.30;69.60;;;;;;5017964;22;20128;-64
2023/07/08 10:54:44;;;;;;;6.05;3.78;;;30.40;70.10;;;;;;5002887;28;20077;-64
2023/07/08 10:57:18;;;;;;;4.45;3.50;;;30.40;69.70;;;;;;5007639;28;20535;-65
2023/07/08 11:00:32;;;;;;;6.50;3.90;;;30.40;67.30;;;;;;5006670;28;20133;-64
2023/07/08 11:03:36;;;;;;;5.88;3.35;;;30.40;66.30;;;;;;5024555;28;20037;-64
2023/07/08 11:06:12;;;;;;;4.63;3.70;;;30.50;66.20;;;;;;5032505;28;20042;-64
2023/07/08 11:09:00;;;;;;;4.80;3.80;;;30.60;64.60;;;;;;5032658;28;20048;-65
2023/07/08 11:11:40;;;;;;;4.88;3.53;;;30.70;65.00;;;;;;5028573;28;20029;-64
2023/07/08 11:14:11;;;;;;;5.50;3.60;;;30.70;64.70;;;;;;5029905;28;20141;-64
2023/07/08 11:16:45;;;;;;;5.05;3.80;;;30.80;63.40;;;;;;5030291;28;20046;-65
2023/07/08 11:19:17;;;;;;;7.57;3.90;;;30.90;62.30;;;;;;5023163;28;20392;-64
2023/07/08 11:21:53;;;;;;;11.32;4.40;;;31.00;62.00;;;;;;5030160;28;20041;-65
2023/07/08 11:24:30;;;;;;;5.70;3.55;;;31.00;61.30;;;;;;5029497;28;20511;-64
2023/07/08 11:27:01;;;;;;;6.60;3.60;;;31.10;60.60;;;;;;5030885;28;20403;-64
2023/07/08 11:29:42;;;;;;;8.57;4.63;;;31.10;60.90;;;;;;5021886;28;20038;-65
2023/07/08 11:32:14;;;;;;;5.22;3.92;;;31.10;61.00;;;;;;5022973;28;20121;-65
2023/07/08 11:34:42;;;;;;;4.60;3.72;;;31.20;59.40;;;;;;5031771;28;20034;-65
2023/07/08 11:37:09;;;;;;;6.00;4.25;;;31.30;59.40;;;;;;5030745;28;20037;-64
2023/07/08 11:39:42;;;;;;;5.68;3.83;;;31.30;58.50;;;;;;5031906;28;20042;-65
2023/07/08 11:42:16;;;;;;;9.27;4.30;;;31.40;59.80;;;;;;5009275;28;20037;-65
2023/07/08 11:44:54;;;;;;;4.57;3.88;;;31.50;60.60;;;;;;5027616;28;20460;-64
2023/07/08 11:47:46;;;;;;;5.45;3.92;;;31.60;59.60;;;;;;5024149;28;20044;-65
2023/07/08 11:50:41;;;;;;;6.13;4.50;;;31.60;60.00;;;;;;5028435;28;20041;-64
2023/07/08 11:53:12;;;;;;;5.32;3.97;;;31.60;57.80;;;;;;5028385;28;20068;-64
2023/07/08 11:56:09;;;;;;;5.43;4.10;;;31.60;58.40;;;;;;5028529;28;20064;-65
2023/07/08 11:58:50;;;;;;;5.78;4.22;;;31.70;59.20;;;;;;5001470;28;20496;-64
2023/07/08 12:02:01;;;;;;;8.32;4.43;;;31.70;57.30;;;;;;5027268;28;20112;-64
2023/07/08 12:04:28;;;;;;;6.82;4.57;;;31.70;59.20;;;;;;4931695;29;20562;-64
2023/07/08 12:07:11;;;;;;;8.32;4.53;;;31.70;57.90;;;;;;4931848;29;20554;-65
2023/07/08 12:09:49;;;;;;;7.40;4.57;;;31.80;59.10;;;;;;4993377;28;20527;-65
2023/07/08 12:12:23;;;;;;;7.45;4.43;;;31.90;59.70;;;;;;5027930;28;20045;-65
2023/07/08 12:14:50;;;;;;;6.43;4.47;;;31.90;58.20;;;;;;5030061;28;20044;-65
2023/07/08 12:17:16;;;;;;;5.95;4.28;;;31.90;57.80;;;;;;5012205;28;20037;-65
2023/07/08 12:19:44;;;;;;;6.32;4.60;;;32.00;57.70;;;;;;5028119;28;20514;-65
2023/07/08 12:22:13;;;;;;;7.68;4.63;;;32.00;57.30;;;;;;5026653;28;20391;-64
2023/07/08 12:24:40;;;;;;;7.60;4.30;;;31.90;56.80;;;;;;5026374;28;20095;-65
2023/07/08 12:27:08;;;;;;;5.30;4.40;;;31.90;56.90;;;;;;5026246;28;20614;-65
2023/07/08 12:29:33;;;;;;;7.28;4.47;;;32.00;57.10;;;;;;5023991;28;20116;-65
2023/07/08 12:32:00;;;;;;;5.95;4.78;;;32.10;58.40;;;;;;5029917;28;20124;-64
2023/07/08 12:34:26;;;;;;;6.60;4.25;;;32.10;58.60;;;;;;5029974;28;20088;-64
2023/07/08 12:36:53;;;;;;;7.85;4.60;;;32.10;57.30;;;;;;5030992;28;20116;-65
2023/07/08 12:39:18;;;;;;;6.63;4.95;;;32.20;56.90;;;;;;5026322;28;20042;-64
2023/07/08 12:41:46;;;;;;;5.18;4.60;;;32.10;57.00;;;;;;5027275;28;20044;-64
2023/07/08 12:44:22;;;;;;;6.88;4.68;;;32.10;56.50;;;;;;5037478;28;20060;-65
2023/07/08 12:46:49;;;;;;;7.03;4.90;;;32.20;56.50;;;;;;5031128;28;20124;-65
2023/07/08 12:49:16;;;;;;;6.85;4.90;;;32.20;54.80;;;;;;5009389;28;20034;-65
2023/07/08 12:51:46;;;;;;;7.57;5.03;;;32.20;55.40;;;;;;5025041;28;20077;-65
2023/07/08 12:54:12;;;;;;;7.37;5.10;;;32.30;54.70;;;;;;5028955;28;20045;-64
2023/07/08 12:56:42;;;;;;;8.73;5.25;;;32.30;55.50;;;;;;5031030;28;20073;-64
2023/07/08 12:59:11;;;;;;;6.88;4.95;;;32.40;54.40;;;;;;5010909;28;20534;-65
2023/07/08 13:01:38;;;;;;;6.32;4.90;;;32.50;54.30;;;;;;5028878;28;20034;-65